sensor_id;sensor_type;location;lat;lon;timestamp;P1;durP1;ratioP1;P2;durP2;ratioP2
65971;SDS011;52726;48.852;9.152;2023-04-19T00:00:59;13.27;;;6.70;;
65971;SDS011;52726;48.852;9.152;2023-04-19T00:03:26;12.15;;;6.97;;
65971;SDS011;52726;48.852;9.152;2023-04-19T00:05:52;12.25;;;7.03;;
65971;SDS011;52726;48.852;9.152;2023-04-19T00:08:23;11.90;;;6.30;;
65971;SDS011;52726;48.852;9.152;2023-04-19T00:10:49;12.30;;;7.10;;
65971;SDS011;52726;48.852;9.152;2023-04-19T00:13:24;13.07;;;6.93;;
65971;SDS011;52726;48.852;9.152;2023-04-19T00:15:49;14.68;;;7.25;;
65971;SDS011;52726;48.852;9.152;2023-04-19T00:18:15;12.27;;;6.78;;
65971;SDS011;52726;48.852;9.152;2023-04-19T00:20:40;12.43;;;6.75;;
65971;SDS011;52726;48.852;9.152;2023-04-19T00:23:05;13.88;;;6.47;;
65971;SDS011;52726;48.852;9.152;2023-04-19T00:25:31;10.73;;;6.60;;
65971;SDS011;52726;48.852;9.152;2023-04-19T00:27:58;14.52;;;6.72;;
65971;SDS011;52726;48.852;9.152;2023-04-19T00:30:24;12.02;;;6.35;;
65971;SDS011;52726;48.852;9.152;2023-04-19T00:32:49;11.50;;;6.40;;
65971;SDS011;52726;48.852;9.152;2023-04-19T00:35:14;10.45;;;6.53;;
65971;SDS011;52726;48.852;9.152;2023-04-19T00:37:40;12.13;;;6.72;;
65971;SDS011;52726;48.852;9.152;2023-04-19T00:40:05;12.57;;;6.88;;
65971;SDS011;52726;48.852;9.152;2023-04-19T00:42:31;12.38;;;7.28;;
65971;SDS011;52726;48.852;9.152;2023-04-19T00:44:56;13.77;;;6.65;;
65971;SDS011;52726;48.852;9.152;2023-04-19T00:47:22;14.05;;;8.00;;
65971;SDS011;52726;48.852;9.152;2023-04-19T00:49:47;14.38;;;7.57;;
65971;SDS011;52726;48.852;9.152;2023-04-19T00:52:12;15.35;;;7.90;;
65971;SDS011;52726;48.852;9.152;2023-04-19T00:54:38;12.63;;;7.57;;
65971;SDS011;52726;48.852;9.152;2023-04-19T00:57:05;14.68;;;7.47;;
65971;SDS011;52726;48.852;9.152;2023-04-19T00:59:31;16.05;;;6.93;;
65971;SDS011;52726;48.852;9.152;2023-04-19T01:01:58;13.55;;;7.18;;
65971;SDS011;52726;48.852;9.152;2023-04-19T01:04:23;14.57;;;7.32;;
65971;SDS011;52726;48.852;9.152;2023-04-19T01:06:49;11.88;;;7.38;;
65971;SDS011;52726;48.852;9.152;2023-04-19T01:09:15;15.27;;;7.00;;
65971;SDS011;52726;48.852;9.152;2023-04-19T01:11:40;12.18;;;7.43;;
65971;SDS011;52726;48.852;9.152;2023-04-19T01:14:05;12.60;;;7.10;;
65971;SDS011;52726;48.852;9.152;2023-04-19T01:16:31;12.63;;;7.45;;
65971;SDS011;52726;48.852;9.152;2023-04-19T01:18:57;13.63;;;7.43;;
65971;SDS011;52726;48.852;9.152;2023-04-19T01:21:22;12.05;;;7.10;;
65971;SDS011;52726;48.852;9.152;2023-04-19T01:23:48;14.30;;;7.72;;
65971;SDS011;52726;48.852;9.152;2023-04-19T01:26:13;14.57;;;7.93;;
65971;SDS011;52726;48.852;9.152;2023-04-19T01:28:38;20.33;;;7.72;;
65971;SDS011;52726;48.852;9.152;2023-04-19T01:31:04;14.43;;;7.95;;
65971;SDS011;52726;48.852;9.152;2023-04-19T01:33:29;15.00;;;7.82;;
65971;SDS011;52726;48.852;9.152;2023-04-19T01:35:54;13.05;;;6.60;;
65971;SDS011;52726;48.852;9.152;2023-04-19T01:38:20;12.60;;;7.57;;
65971;SDS011;52726;48.852;9.152;2023-04-19T01:40:45;13.38;;;7.38;;
65971;SDS011;52726;48.852;9.152;2023-04-19T01:43:11;12.13;;;6.75;;
65971;SDS011;52726;48.852;9.152;2023-04-19T01:45:38;16.65;;;8.57;;
65971;SDS011;52726;48.852;9.152;2023-04-19T01:48:03;15.98;;;8.02;;
65971;SDS011;52726;48.852;9.152;2023-04-19T01:50:32;20.27;;;8.68;;
65971;SDS011;52726;48.852;9.152;2023-04-19T01:52:58;12.63;;;7.28;;
65971;SDS011;52726;48.852;9.152;2023-04-19T01:55:23;15.75;;;7.65;;
65971;SDS011;52726;48.852;9.152;2023-04-19T01:57:49;13.38;;;7.05;;
65971;SDS011;52726;48.852;9.152;2023-04-19T02:00:16;21.50;;;8.35;;
65971;SDS011;52726;48.852;9.152;2023-04-19T02:02:42;13.00;;;7.85;;
65971;SDS011;52726;48.852;9.152;2023-04-19T02:05:08;12.45;;;7.32;;
65971;SDS011;52726;48.852;9.152;2023-04-19T02:07:34;14.85;;;7.07;;
65971;SDS011;52726;48.852;9.152;2023-04-19T02:09:59;14.00;;;7.85;;
65971;SDS011;52726;48.852;9.152;2023-04-19T02:12:28;14.15;;;7.90;;
65971;SDS011;52726;48.852;9.152;2023-04-19T02:14:55;14.38;;;7.85;;
65971;SDS011;52726;48.852;9.152;2023-04-19T02:17:23;13.30;;;8.23;;
65971;SDS011;52726;48.852;9.152;2023-04-19T02:19:49;13.98;;;8.50;;
65971;SDS011;52726;48.852;9.152;2023-04-19T02:22:15;19.60;;;9.13;;
65971;SDS011;52726;48.852;9.152;2023-04-19T02:24:40;12.48;;;7.80;;
65971;SDS011;52726;48.852;9.152;2023-04-19T02:27:06;14.90;;;7.68;;
65971;SDS011;52726;48.852;9.152;2023-04-19T02:29:31;14.73;;;8.50;;
65971;SDS011;52726;48.852;9.152;2023-04-19T02:31:57;14.45;;;7.80;;
65971;SDS011;52726;48.852;9.152;2023-04-19T02:34:22;16.23;;;7.78;;
65971;SDS011;52726;48.852;9.152;2023-04-19T02:36:48;12.70;;;8.00;;
65971;SDS011;52726;48.852;9.152;2023-04-19T02:39:13;19.90;;;8.23;;
65971;SDS011;52726;48.852;9.152;2023-04-19T02:41:38;17.02;;;8.98;;
65971;SDS011;52726;48.852;9.152;2023-04-19T02:44:04;14.82;;;8.38;;
65971;SDS011;52726;48.852;9.152;2023-04-19T02:46:29;15.35;;;8.23;;
65971;SDS011;52726;48.852;9.152;2023-04-19T02:48:55;12.57;;;7.43;;
65971;SDS011;52726;48.852;9.152;2023-04-19T02:51:20;16.27;;;8.77;;
65971;SDS011;52726;48.852;9.152;2023-04-19T02:53:45;13.30;;;8.40;;
65971;SDS011;52726;48.852;9.152;2023-04-19T02:56:10;13.20;;;7.72;;
65971;SDS011;52726;48.852;9.152;2023-04-19T02:58:36;15.32;;;8.32;;
65971;SDS011;52726;48.852;9.152;2023-04-19T03:01:01;16.52;;;9.45;;
65971;SDS011;52726;48.852;9.152;2023-04-19T03:03:27;14.32;;;8.40;;
65971;SDS011;52726;48.852;9.152;2023-04-19T03:05:52;17.33;;;8.88;;
65971;SDS011;52726;48.852;9.152;2023-04-19T03:08:17;16.60;;;9.38;;
65971;SDS011;52726;48.852;9.152;2023-04-19T03:10:43;19.90;;;9.52;;
65971;SDS011;52726;48.852;9.152;2023-04-19T03:13:08;19.58;;;8.48;;
65971;SDS011;52726;48.852;9.152;2023-04-19T03:15:34;18.45;;;9.48;;
65971;SDS011;52726;48.852;9.152;2023-04-19T03:17:59;18.05;;;8.90;;
65971;SDS011;52726;48.852;9.152;2023-04-19T03:20:25;16.80;;;9.50;;
65971;SDS011;52726;48.852;9.152;2023-04-19T03:22:50;12.95;;;7.63;;
65971;SDS011;52726;48.852;9.152;2023-04-19T03:25:16;17.23;;;9.15;;
65971;SDS011;52726;48.852;9.152;2023-04-19T03:27:41;15.27;;;8.90;;
65971;SDS011;52726;48.852;9.152;2023-04-19T03:30:09;14.68;;;8.32;;
65971;SDS011;52726;48.852;9.152;2023-04-19T03:32:35;20.52;;;9.30;;
65971;SDS011;52726;48.852;9.152;2023-04-19T03:35:01;15.77;;;8.27;;
65971;SDS011;52726;48.852;9.152;2023-04-19T03:37:26;14.05;;;8.18;;
65971;SDS011;52726;48.852;9.152;2023-04-19T03:39:51;19.88;;;9.65;;
65971;SDS011;52726;48.852;9.152;2023-04-19T03:42:17;18.65;;;8.98;;
65971;SDS011;52726;48.852;9.152;2023-04-19T03:44:42;15.82;;;9.00;;
65971;SDS011;52726;48.852;9.152;2023-04-19T03:47:07;13.65;;;8.13;;
65971;SDS011;52726;48.852;9.152;2023-04-19T03:49:33;19.15;;;10.00;;
65971;SDS011;52726;48.852;9.152;2023-04-19T03:51:58;14.00;;;8.07;;
65971;SDS011;52726;48.852;9.152;2023-04-19T03:54:23;14.52;;;8.48;;
65971;SDS011;52726;48.852;9.152;2023-04-19T03:56:48;16.27;;;8.98;;
65971;SDS011;52726;48.852;9.152;2023-04-19T03:59:14;17.85;;;8.23;;
65971;SDS011;52726;48.852;9.152;2023-04-19T04:01:39;14.00;;;8.60;;
65971;SDS011;52726;48.852;9.152;2023-04-19T04:04:09;18.00;;;8.90;;
65971;SDS011;52726;48.852;9.152;2023-04-19T04:06:35;15.45;;;8.07;;
65971;SDS011;52726;48.852;9.152;2023-04-19T04:09:01;15.88;;;9.32;;
65971;SDS011;52726;48.852;9.152;2023-04-19T04:11:26;21.50;;;9.30;;
65971;SDS011;52726;48.852;9.152;2023-04-19T04:13:52;16.38;;;9.27;;
65971;SDS011;52726;48.852;9.152;2023-04-19T04:16:18;14.85;;;8.68;;
65971;SDS011;52726;48.852;9.152;2023-04-19T04:18:43;15.93;;;8.50;;
65971;SDS011;52726;48.852;9.152;2023-04-19T04:21:08;13.98;;;8.25;;
65971;SDS011;52726;48.852;9.152;2023-04-19T04:23:34;14.95;;;8.25;;
65971;SDS011;52726;48.852;9.152;2023-04-19T04:25:59;14.85;;;8.32;;
65971;SDS011;52726;48.852;9.152;2023-04-19T04:28:28;16.35;;;8.65;;
65971;SDS011;52726;48.852;9.152;2023-04-19T04:30:54;18.67;;;8.88;;
65971;SDS011;52726;48.852;9.152;2023-04-19T04:33:24;15.45;;;7.68;;
65971;SDS011;52726;48.852;9.152;2023-04-19T04:35:50;15.23;;;8.60;;
65971;SDS011;52726;48.852;9.152;2023-04-19T04:38:17;15.52;;;7.85;;
65971;SDS011;52726;48.852;9.152;2023-04-19T04:40:42;16.17;;;8.95;;
65971;SDS011;52726;48.852;9.152;2023-04-19T04:43:08;15.73;;;8.30;;
65971;SDS011;52726;48.852;9.152;2023-04-19T04:45:34;19.50;;;10.90;;
65971;SDS011;52726;48.852;9.152;2023-04-19T04:48:01;16.55;;;9.63;;
65971;SDS011;52726;48.852;9.152;2023-04-19T04:50:27;16.05;;;9.00;;
65971;SDS011;52726;48.852;9.152;2023-04-19T04:52:52;18.67;;;9.52;;
65971;SDS011;52726;48.852;9.152;2023-04-19T04:55:18;14.35;;;8.98;;
65971;SDS011;52726;48.852;9.152;2023-04-19T04:57:43;17.30;;;8.73;;
65971;SDS011;52726;48.852;9.152;2023-04-19T05:00:08;15.23;;;8.55;;
65971;SDS011;52726;48.852;9.152;2023-04-19T05:02:35;15.30;;;8.68;;
65971;SDS011;52726;48.852;9.152;2023-04-19T05:05:01;18.70;;;9.60;;
65971;SDS011;52726;48.852;9.152;2023-04-19T05:07:27;14.88;;;8.57;;
65971;SDS011;52726;48.852;9.152;2023-04-19T05:09:52;18.13;;;9.43;;
65971;SDS011;52726;48.852;9.152;2023-04-19T05:12:18;13.93;;;8.30;;
65971;SDS011;52726;48.852;9.152;2023-04-19T05:14:43;14.60;;;8.75;;
65971;SDS011;52726;48.852;9.152;2023-04-19T05:17:08;15.13;;;9.20;;
65971;SDS011;52726;48.852;9.152;2023-04-19T05:19:33;13.98;;;8.50;;
65971;SDS011;52726;48.852;9.152;2023-04-19T05:21:59;15.13;;;8.32;;
65971;SDS011;52726;48.852;9.152;2023-04-19T05:24:24;14.10;;;8.65;;
65971;SDS011;52726;48.852;9.152;2023-04-19T05:26:49;15.45;;;8.38;;
65971;SDS011;52726;48.852;9.152;2023-04-19T05:29:15;13.13;;;8.10;;
65971;SDS011;52726;48.852;9.152;2023-04-19T05:31:41;13.43;;;8.05;;
65971;SDS011;52726;48.852;9.152;2023-04-19T05:34:06;14.90;;;9.07;;
65971;SDS011;52726;48.852;9.152;2023-04-19T05:36:31;14.52;;;8.52;;
65971;SDS011;52726;48.852;9.152;2023-04-19T05:38:57;14.73;;;7.75;;
65971;SDS011;52726;48.852;9.152;2023-04-19T05:41:22;16.65;;;7.85;;
65971;SDS011;52726;48.852;9.152;2023-04-19T05:43:48;13.32;;;7.90;;
65971;SDS011;52726;48.852;9.152;2023-04-19T05:46:13;12.43;;;7.60;;
65971;SDS011;52726;48.852;9.152;2023-04-19T05:48:38;16.35;;;8.02;;
65971;SDS011;52726;48.852;9.152;2023-04-19T05:51:04;17.15;;;8.27;;
65971;SDS011;52726;48.852;9.152;2023-04-19T05:53:29;14.35;;;7.75;;
65971;SDS011;52726;48.852;9.152;2023-04-19T05:55:55;16.95;;;8.43;;
65971;SDS011;52726;48.852;9.152;2023-04-19T05:58:20;14.38;;;7.75;;
65971;SDS011;52726;48.852;9.152;2023-04-19T06:00:47;12.30;;;7.90;;
65971;SDS011;52726;48.852;9.152;2023-04-19T06:03:13;12.50;;;7.63;;
65971;SDS011;52726;48.852;9.152;2023-04-19T06:05:38;12.68;;;7.70;;
65971;SDS011;52726;48.852;9.152;2023-04-19T06:08:04;14.32;;;7.82;;
65971;SDS011;52726;48.852;9.152;2023-04-19T06:10:31;15.10;;;8.18;;
65971;SDS011;52726;48.852;9.152;2023-04-19T06:12:56;15.00;;;8.10;;
65971;SDS011;52726;48.852;9.152;2023-04-19T06:15:21;16.52;;;9.00;;
65971;SDS011;52726;48.852;9.152;2023-04-19T06:17:47;13.98;;;8.55;;
65971;SDS011;52726;48.852;9.152;2023-04-19T06:20:12;14.70;;;7.90;;
65971;SDS011;52726;48.852;9.152;2023-04-19T06:22:44;16.70;;;8.02;;
65971;SDS011;52726;48.852;9.152;2023-04-19T06:25:10;14.40;;;7.82;;
65971;SDS011;52726;48.852;9.152;2023-04-19T06:27:35;16.50;;;8.55;;
65971;SDS011;52726;48.852;9.152;2023-04-19T06:30:01;13.57;;;7.78;;
65971;SDS011;52726;48.852;9.152;2023-04-19T06:32:26;14.98;;;7.95;;
65971;SDS011;52726;48.852;9.152;2023-04-19T06:34:51;14.80;;;7.57;;
65971;SDS011;52726;48.852;9.152;2023-04-19T06:37:17;13.93;;;7.60;;
65971;SDS011;52726;48.852;9.152;2023-04-19T06:39:42;13.07;;;7.22;;
65971;SDS011;52726;48.852;9.152;2023-04-19T06:42:08;18.63;;;8.77;;
65971;SDS011;52726;48.852;9.152;2023-04-19T06:44:33;11.50;;;6.78;;
65971;SDS011;52726;48.852;9.152;2023-04-19T06:46:58;14.00;;;7.95;;
65971;SDS011;52726;48.852;9.152;2023-04-19T06:49:24;14.02;;;7.68;;
65971;SDS011;52726;48.852;9.152;2023-04-19T06:51:49;14.13;;;8.25;;
65971;SDS011;52726;48.852;9.152;2023-04-19T06:54:14;12.63;;;7.75;;
65971;SDS011;52726;48.852;9.152;2023-04-19T06:59:09;12.85;;;7.07;;
65971;SDS011;52726;48.852;9.152;2023-04-19T07:01:34;11.07;;;6.53;;
65971;SDS011;52726;48.852;9.152;2023-04-19T07:03:59;12.80;;;7.57;;
65971;SDS011;52726;48.852;9.152;2023-04-19T07:06:25;12.52;;;7.70;;
65971;SDS011;52726;48.852;9.152;2023-04-19T07:08:50;14.35;;;7.15;;
65971;SDS011;52726;48.852;9.152;2023-04-19T07:11:16;11.43;;;7.28;;
65971;SDS011;52726;48.852;9.152;2023-04-19T07:13:41;11.18;;;6.55;;
65971;SDS011;52726;48.852;9.152;2023-04-19T07:16:06;11.98;;;7.47;;
65971;SDS011;52726;48.852;9.152;2023-04-19T07:18:32;12.80;;;7.07;;
65971;SDS011;52726;48.852;9.152;2023-04-19T07:20:57;12.65;;;7.22;;
65971;SDS011;52726;48.852;9.152;2023-04-19T07:23:22;12.15;;;7.35;;
65971;SDS011;52726;48.852;9.152;2023-04-19T07:25:48;11.35;;;7.65;;
65971;SDS011;52726;48.852;9.152;2023-04-19T07:28:13;13.05;;;7.70;;
65971;SDS011;52726;48.852;9.152;2023-04-19T07:30:39;16.35;;;8.25;;
65971;SDS011;52726;48.852;9.152;2023-04-19T07:33:05;12.57;;;7.35;;
65971;SDS011;52726;48.852;9.152;2023-04-19T07:35:32;14.30;;;7.55;;
65971;SDS011;52726;48.852;9.152;2023-04-19T07:37:58;11.05;;;6.82;;
65971;SDS011;52726;48.852;9.152;2023-04-19T07:40:23;13.05;;;7.47;;
65971;SDS011;52726;48.852;9.152;2023-04-19T07:42:48;12.75;;;7.15;;
65971;SDS011;52726;48.852;9.152;2023-04-19T07:45:14;13.35;;;6.85;;
65971;SDS011;52726;48.852;9.152;2023-04-19T07:47:39;15.25;;;7.38;;
65971;SDS011;52726;48.852;9.152;2023-04-19T07:50:05;12.38;;;6.60;;
65971;SDS011;52726;48.852;9.152;2023-04-19T07:52:31;12.20;;;6.03;;
65971;SDS011;52726;48.852;9.152;2023-04-19T07:54:57;9.60;;;5.68;;
65971;SDS011;52726;48.852;9.152;2023-04-19T07:57:22;11.68;;;6.18;;
65971;SDS011;52726;48.852;9.152;2023-04-19T07:59:47;11.15;;;6.38;;
65971;SDS011;52726;48.852;9.152;2023-04-19T08:02:13;8.77;;;5.85;;
65971;SDS011;52726;48.852;9.152;2023-04-19T08:04:40;10.93;;;5.97;;
65971;SDS011;52726;48.852;9.152;2023-04-19T08:07:05;11.07;;;6.28;;
65971;SDS011;52726;48.852;9.152;2023-04-19T08:09:32;11.80;;;5.85;;
65971;SDS011;52726;48.852;9.152;2023-04-19T08:11:58;10.95;;;6.57;;
65971;SDS011;52726;48.852;9.152;2023-04-19T08:14:23;11.15;;;6.70;;
65971;SDS011;52726;48.852;9.152;2023-04-19T08:16:48;16.00;;;5.50;;
65971;SDS011;52726;48.852;9.152;2023-04-19T08:19:14;10.95;;;5.45;;
65971;SDS011;52726;48.852;9.152;2023-04-19T08:21:39;10.73;;;6.47;;
65971;SDS011;52726;48.852;9.152;2023-04-19T08:24:05;10.38;;;5.78;;
65971;SDS011;52726;48.852;9.152;2023-04-19T08:26:31;14.43;;;6.30;;
65971;SDS011;52726;48.852;9.152;2023-04-19T08:28:56;11.40;;;6.18;;
65971;SDS011;52726;48.852;9.152;2023-04-19T08:31:22;11.98;;;6.60;;
65971;SDS011;52726;48.852;9.152;2023-04-19T08:33:47;10.15;;;5.35;;
65971;SDS011;52726;48.852;9.152;2023-04-19T08:36:12;9.43;;;5.25;;
65971;SDS011;52726;48.852;9.152;2023-04-19T08:38:38;14.68;;;6.13;;
65971;SDS011;52726;48.852;9.152;2023-04-19T08:41:03;11.20;;;6.47;;
65971;SDS011;52726;48.852;9.152;2023-04-19T08:43:29;14.40;;;6.63;;
65971;SDS011;52726;48.852;9.152;2023-04-19T08:45:57;11.27;;;6.43;;
65971;SDS011;52726;48.852;9.152;2023-04-19T08:48:23;10.55;;;6.13;;
65971;SDS011;52726;48.852;9.152;2023-04-19T08:50:51;8.93;;;5.57;;
65971;SDS011;52726;48.852;9.152;2023-04-19T08:53:17;8.88;;;6.18;;
65971;SDS011;52726;48.852;9.152;2023-04-19T08:55:43;13.40;;;6.65;;
65971;SDS011;52726;48.852;9.152;2023-04-19T08:58:10;15.10;;;6.78;;
65971;SDS011;52726;48.852;9.152;2023-04-19T09:00:37;15.32;;;6.97;;
65971;SDS011;52726;48.852;9.152;2023-04-19T09:03:03;14.15;;;6.07;;
65971;SDS011;52726;48.852;9.152;2023-04-19T09:05:31;12.95;;;7.13;;
65971;SDS011;52726;48.852;9.152;2023-04-19T09:08:19;11.95;;;6.72;;
65971;SDS011;52726;48.852;9.152;2023-04-19T09:10:55;9.15;;;5.63;;
65971;SDS011;52726;48.852;9.152;2023-04-19T09:13:22;9.55;;;5.85;;
65971;SDS011;52726;48.852;9.152;2023-04-19T09:15:48;10.70;;;5.93;;
65971;SDS011;52726;48.852;9.152;2023-04-19T09:18:15;13.32;;;7.35;;
65971;SDS011;52726;48.852;9.152;2023-04-19T09:20:41;11.50;;;6.78;;
65971;SDS011;52726;48.852;9.152;2023-04-19T09:23:11;11.00;;;6.78;;
65971;SDS011;52726;48.852;9.152;2023-04-19T09:25:38;9.88;;;6.53;;
65971;SDS011;52726;48.852;9.152;2023-04-19T09:28:11;10.57;;;6.07;;
65971;SDS011;52726;48.852;9.152;2023-04-19T09:30:37;11.20;;;6.88;;
65971;SDS011;52726;48.852;9.152;2023-04-19T09:33:04;11.13;;;6.88;;
65971;SDS011;52726;48.852;9.152;2023-04-19T09:35:42;10.80;;;6.30;;
65971;SDS011;52726;48.852;9.152;2023-04-19T09:38:11;10.82;;;7.25;;
65971;SDS011;52726;48.852;9.152;2023-04-19T09:40:37;10.52;;;6.68;;
65971;SDS011;52726;48.852;9.152;2023-04-19T09:43:03;12.57;;;7.00;;
65971;SDS011;52726;48.852;9.152;2023-04-19T09:45:41;10.60;;;6.40;;
65971;SDS011;52726;48.852;9.152;2023-04-19T09:48:08;11.23;;;6.15;;
65971;SDS011;52726;48.852;9.152;2023-04-19T09:50:35;12.40;;;5.97;;
65971;SDS011;52726;48.852;9.152;2023-04-19T09:53:10;9.40;;;5.78;;
65971;SDS011;52726;48.852;9.152;2023-04-19T09:55:38;13.27;;;6.53;;
65971;SDS011;52726;48.852;9.152;2023-04-19T09:58:06;11.13;;;5.68;;
65971;SDS011;52726;48.852;9.152;2023-04-19T10:00:32;12.38;;;5.57;;
65971;SDS011;52726;48.852;9.152;2023-04-19T10:02:59;9.18;;;5.47;;
65971;SDS011;52726;48.852;9.152;2023-04-19T10:05:24;10.55;;;6.00;;
65971;SDS011;52726;48.852;9.152;2023-04-19T10:07:50;10.00;;;5.95;;
65971;SDS011;52726;48.852;9.152;2023-04-19T10:10:16;13.38;;;6.15;;
65971;SDS011;52726;48.852;9.152;2023-04-19T10:12:43;8.88;;;5.40;;
65971;SDS011;52726;48.852;9.152;2023-04-19T10:15:16;8.93;;;5.45;;
65971;SDS011;52726;48.852;9.152;2023-04-19T10:17:43;9.05;;;5.43;;
65971;SDS011;52726;48.852;9.152;2023-04-19T10:20:10;12.02;;;5.85;;
65971;SDS011;52726;48.852;9.152;2023-04-19T10:22:41;11.90;;;5.82;;
65971;SDS011;52726;48.852;9.152;2023-04-19T10:25:13;9.18;;;6.10;;
65971;SDS011;52726;48.852;9.152;2023-04-19T10:27:40;10.52;;;5.70;;
65971;SDS011;52726;48.852;9.152;2023-04-19T10:30:19;9.20;;;5.72;;
65971;SDS011;52726;48.852;9.152;2023-04-19T10:35:26;7.72;;;5.50;;
65971;SDS011;52726;48.852;9.152;2023-04-19T10:43:17;10.32;;;5.80;;
65971;SDS011;52726;48.852;9.152;2023-04-19T10:45:43;12.77;;;6.15;;
65971;SDS011;52726;48.852;9.152;2023-04-19T10:50:58;12.35;;;6.65;;
65971;SDS011;52726;48.852;9.152;2023-04-19T10:53:45;12.15;;;5.72;;
65971;SDS011;52726;48.852;9.152;2023-04-19T10:56:15;9.02;;;5.45;;
65971;SDS011;52726;48.852;9.152;2023-04-19T11:01:36;9.13;;;5.35;;
65971;SDS011;52726;48.852;9.152;2023-04-19T11:04:03;9.52;;;5.90;;
65971;SDS011;52726;48.852;9.152;2023-04-19T11:09:36;10.88;;;5.78;;
65971;SDS011;52726;48.852;9.152;2023-04-19T11:14:41;12.70;;;6.22;;
65971;SDS011;52726;48.852;9.152;2023-04-19T11:17:17;8.68;;;5.25;;
65971;SDS011;52726;48.852;9.152;2023-04-19T11:20:06;12.77;;;6.65;;
65971;SDS011;52726;48.852;9.152;2023-04-19T11:22:38;9.85;;;6.25;;
65971;SDS011;52726;48.852;9.152;2023-04-19T11:27:35;13.20;;;7.38;;
65971;SDS011;52726;48.852;9.152;2023-04-19T11:30:04;16.35;;;7.65;;
65971;SDS011;52726;48.852;9.152;2023-04-19T11:32:32;9.07;;;6.22;;
65971;SDS011;52726;48.852;9.152;2023-04-19T11:35:02;13.10;;;6.68;;
65971;SDS011;52726;48.852;9.152;2023-04-19T11:37:32;11.35;;;7.93;;
65971;SDS011;52726;48.852;9.152;2023-04-19T11:39:58;13.07;;;7.35;;
65971;SDS011;52726;48.852;9.152;2023-04-19T11:42:24;8.32;;;6.22;;
65971;SDS011;52726;48.852;9.152;2023-04-19T11:44:50;12.18;;;6.82;;
65971;SDS011;52726;48.852;9.152;2023-04-19T11:47:15;14.68;;;7.75;;
65971;SDS011;52726;48.852;9.152;2023-04-19T11:49:41;13.38;;;8.70;;
65971;SDS011;52726;48.852;9.152;2023-04-19T11:52:06;15.02;;;8.48;;
65971;SDS011;52726;48.852;9.152;2023-04-19T11:54:32;15.25;;;8.40;;
65971;SDS011;52726;48.852;9.152;2023-04-19T11:57:01;12.88;;;8.05;;
65971;SDS011;52726;48.852;9.152;2023-04-19T11:59:28;15.93;;;9.35;;
65971;SDS011;52726;48.852;9.152;2023-04-19T12:01:54;15.40;;;8.77;;
65971;SDS011;52726;48.852;9.152;2023-04-19T12:04:20;17.50;;;9.48;;
65971;SDS011;52726;48.852;9.152;2023-04-19T12:06:54;22.75;;;9.68;;
65971;SDS011;52726;48.852;9.152;2023-04-19T12:09:22;15.38;;;8.80;;
65971;SDS011;52726;48.852;9.152;2023-04-19T12:11:47;18.13;;;9.98;;
65971;SDS011;52726;48.852;9.152;2023-04-19T12:14:14;17.58;;;9.50;;
65971;SDS011;52726;48.852;9.152;2023-04-19T12:16:42;14.63;;;8.63;;
65971;SDS011;52726;48.852;9.152;2023-04-19T12:19:12;15.48;;;8.60;;
65971;SDS011;52726;48.852;9.152;2023-04-19T12:21:42;16.17;;;8.40;;
65971;SDS011;52726;48.852;9.152;2023-04-19T12:24:09;15.15;;;8.65;;
65971;SDS011;52726;48.852;9.152;2023-04-19T12:26:34;15.50;;;8.35;;
65971;SDS011;52726;48.852;9.152;2023-04-19T12:29:00;16.83;;;8.77;;
65971;SDS011;52726;48.852;9.152;2023-04-19T12:31:27;16.30;;;9.18;;
65971;SDS011;52726;48.852;9.152;2023-04-19T12:33:56;21.25;;;8.45;;
65971;SDS011;52726;48.852;9.152;2023-04-19T12:36:21;15.95;;;9.23;;
65971;SDS011;52726;48.852;9.152;2023-04-19T12:38:46;16.42;;;8.70;;
65971;SDS011;52726;48.852;9.152;2023-04-19T12:41:12;16.95;;;9.90;;
65971;SDS011;52726;48.852;9.152;2023-04-19T12:43:37;17.65;;;8.73;;
65971;SDS011;52726;48.852;9.152;2023-04-19T12:46:03;12.57;;;7.55;;
65971;SDS011;52726;48.852;9.152;2023-04-19T12:48:29;12.32;;;7.47;;
65971;SDS011;52726;48.852;9.152;2023-04-19T12:50:54;16.92;;;8.48;;
65971;SDS011;52726;48.852;9.152;2023-04-19T12:53:19;12.38;;;8.48;;
65971;SDS011;52726;48.852;9.152;2023-04-19T12:55:46;20.33;;;7.15;;
65971;SDS011;52726;48.852;9.152;2023-04-19T12:58:13;12.13;;;7.35;;
65971;SDS011;52726;48.852;9.152;2023-04-19T13:00:39;13.07;;;8.02;;
65971;SDS011;52726;48.852;9.152;2023-04-19T13:03:05;17.27;;;9.23;;
65971;SDS011;52726;48.852;9.152;2023-04-19T13:05:30;14.82;;;8.20;;
65971;SDS011;52726;48.852;9.152;2023-04-19T13:07:55;16.70;;;9.40;;
65971;SDS011;52726;48.852;9.152;2023-04-19T13:10:21;15.82;;;8.45;;
65971;SDS011;52726;48.852;9.152;2023-04-19T13:12:46;13.65;;;8.00;;
65971;SDS011;52726;48.852;9.152;2023-04-19T13:15:13;15.90;;;8.30;;
65971;SDS011;52726;48.852;9.152;2023-04-19T13:17:38;13.15;;;7.28;;
65971;SDS011;52726;48.852;9.152;2023-04-19T13:20:04;13.15;;;6.85;;
65971;SDS011;52726;48.852;9.152;2023-04-19T13:22:30;15.10;;;7.45;;
65971;SDS011;52726;48.852;9.152;2023-04-19T13:24:56;12.73;;;6.65;;
65971;SDS011;52726;48.852;9.152;2023-04-19T13:27:21;11.35;;;6.88;;
65971;SDS011;52726;48.852;9.152;2023-04-19T13:29:47;11.57;;;6.35;;
65971;SDS011;52726;48.852;9.152;2023-04-19T13:32:12;13.88;;;7.28;;
65971;SDS011;52726;48.852;9.152;2023-04-19T13:34:38;10.15;;;6.43;;
65971;SDS011;52726;48.852;9.152;2023-04-19T13:37:04;12.57;;;7.13;;
65971;SDS011;52726;48.852;9.152;2023-04-19T13:39:30;12.23;;;7.30;;
65971;SDS011;52726;48.852;9.152;2023-04-19T13:41:55;13.85;;;7.68;;
65971;SDS011;52726;48.852;9.152;2023-04-19T13:44:21;12.77;;;6.90;;
65971;SDS011;52726;48.852;9.152;2023-04-19T13:46:46;13.25;;;6.93;;
65971;SDS011;52726;48.852;9.152;2023-04-19T13:49:11;11.63;;;6.40;;
65971;SDS011;52726;48.852;9.152;2023-04-19T13:51:37;9.15;;;6.47;;
65971;SDS011;52726;48.852;9.152;2023-04-19T13:54:02;8.30;;;5.63;;
65971;SDS011;52726;48.852;9.152;2023-04-19T13:56:28;12.60;;;6.22;;
65971;SDS011;52726;48.852;9.152;2023-04-19T13:58:54;11.13;;;5.70;;
65971;SDS011;52726;48.852;9.152;2023-04-19T14:01:19;8.30;;;5.28;;
65971;SDS011;52726;48.852;9.152;2023-04-19T14:03:45;8.43;;;5.40;;
65971;SDS011;52726;48.852;9.152;2023-04-19T14:06:10;9.57;;;5.90;;
65971;SDS011;52726;48.852;9.152;2023-04-19T14:08:35;8.40;;;5.72;;
65971;SDS011;52726;48.852;9.152;2023-04-19T14:11:01;7.95;;;5.50;;
65971;SDS011;52726;48.852;9.152;2023-04-19T14:13:26;7.80;;;4.78;;
65971;SDS011;52726;48.852;9.152;2023-04-19T14:15:52;8.57;;;5.40;;
65971;SDS011;52726;48.852;9.152;2023-04-19T14:18:17;12.65;;;6.53;;
65971;SDS011;52726;48.852;9.152;2023-04-19T14:20:42;9.57;;;5.63;;
65971;SDS011;52726;48.852;9.152;2023-04-19T14:23:08;9.18;;;5.18;;
65971;SDS011;52726;48.852;9.152;2023-04-19T14:25:33;11.20;;;5.53;;
65971;SDS011;52726;48.852;9.152;2023-04-19T14:28:00;7.85;;;5.35;;
65971;SDS011;52726;48.852;9.152;2023-04-19T14:30:32;7.10;;;4.88;;
65971;SDS011;52726;48.852;9.152;2023-04-19T14:32:57;9.82;;;5.85;;
65971;SDS011;52726;48.852;9.152;2023-04-19T14:35:22;7.53;;;5.35;;
65971;SDS011;52726;48.852;9.152;2023-04-19T14:37:48;9.23;;;5.50;;
65971;SDS011;52726;48.852;9.152;2023-04-19T14:40:13;7.32;;;5.03;;
65971;SDS011;52726;48.852;9.152;2023-04-19T14:42:38;9.70;;;5.28;;
65971;SDS011;52726;48.852;9.152;2023-04-19T14:45:04;9.07;;;5.47;;
65971;SDS011;52726;48.852;9.152;2023-04-19T14:47:30;10.18;;;5.43;;
65971;SDS011;52726;48.852;9.152;2023-04-19T14:49:55;8.57;;;5.47;;
65971;SDS011;52726;48.852;9.152;2023-04-19T14:52:21;9.25;;;5.65;;
65971;SDS011;52726;48.852;9.152;2023-04-19T14:54:46;8.88;;;5.07;;